Time;durP1;ratioP1;P1;durP2;ratioP2;P2;SDS_P1;SDS_P2;PMS_P1;PMS_P2;Temp;Humidity;BMP_temperature;BMP_pressure;BME280_temperature;BME280_humidity;BME280_pressure;Samples;Min_cycle;Max_cycle;Signal;HPM_P1;HPM_P2
2021/10/25 00:02:20;;;;;;;21.90;12.30;;;;;;;1.85;79.94;99703.55;114534;1180;23113;-91
2021/10/25 00:04:49;;;;;;;25.50;12.20;;;;;;;1.85;80.04;99700.94;114131;1202;22479;-92
2021/10/25 00:07:16;;;;;;;23.40;12.90;;;;;;;1.83;80.05;99695.69;114316;1196;137299;-92
2021/10/25 00:09:47;;;;;;;27.90;13.50;;;;;;;1.83;80.42;99699.98;115058;1202;22904;-92
2021/10/25 00:12:14;;;;;;;26.60;13.80;;;;;;;1.83;80.36;99693.61;114709;1203;137480;-91
2021/10/25 00:14:44;;;;;;;29.00;15.00;;;;;;;1.81;80.33;99686.64;114288;1202;23509;-92
2021/10/25 00:17:11;;;;;;;24.90;13.00;;;;;;;1.84;80.33;99689.88;113933;1196;138007;-91
2021/10/25 00:19:38;;;;;;;27.00;12.30;;;;;;;1.81;80.28;99686.06;114331;1202;22732;-91
2021/10/25 00:22:06;;;;;;;26.90;12.00;;;;;;;1.85;80.13;99692.70;113858;1202;23771;-91
2021/10/25 00:24:33;;;;;;;26.70;13.60;;;;;;;1.82;80.13;99694.21;114492;1202;137506;-92
2021/10/25 00:27:01;;;;;;;29.00;13.70;;;;;;;1.74;79.78;99695.76;114257;1196;23739;-92
2021/10/25 00:29:28;;;;;;;29.60;14.50;;;;;;;1.70;79.79;99700.30;113896;1203;137466;-92
2021/10/25 00:31:55;;;;;;;24.80;13.40;;;;;;;1.67;80.02;99698.64;114242;1203;24032;-93
2021/10/25 00:34:23;;;;;;;21.10;12.40;;;;;;;1.66;80.04;99701.41;114340;1203;22434;-93
2021/10/25 00:36:51;;;;;;;21.60;12.10;;;;;;;1.65;80.22;99700.78;114646;1196;137885;-92
2021/10/25 00:39:32;;;;;;;26.40;12.40;;;;;;;1.64;80.35;99694.59;114763;1202;22446;-91
2021/10/25 00:42:01;;;;;;;30.10;12.30;;;;;;;1.66;80.58;99697.08;114816;1202;137384;-91
2021/10/25 00:44:31;;;;;;;24.00;13.60;;;;;;;1.67;80.54;99694.30;114649;1202;25444;-92
2021/10/25 00:47:00;;;;;;;24.00;11.70;;;;;;;1.69;80.59;99692.69;114661;1196;22435;-90
2021/10/25 00:49:27;;;;;;;26.40;11.70;;;;;;;1.73;80.86;99688.00;114139;1203;137757;-93
2021/10/25 00:51:55;;;;;;;28.40;13.50;;;;;;;1.75;81.01;99679.75;114037;1203;22442;-89
2021/10/25 00:54:47;;;;;;;25.20;12.50;;;;;;;1.76;81.02;99672.80;113879;1203;137446;-90
2021/10/25 00:57:17;;;;;;;31.10;14.50;;;;;;;1.76;80.89;99671.71;114662;1196;26412;-90
2021/10/25 00:59:44;;;;;;;27.70;13.60;;;;;;;1.73;80.74;99671.73;114859;1202;137542;-90
2021/10/25 01:02:13;;;;;;;31.50;13.50;;;;;;;1.66;80.46;99665.77;114110;1202;25268;-90
2021/10/25 01:04:43;;;;;;;24.90;12.60;;;;;;;1.63;80.52;99661.99;115068;1196;24063;-90
2021/10/25 01:07:12;;;;;;;24.70;12.40;;;;;;;1.62;80.65;99657.79;113941;1196;137356;-89
2021/10/25 01:09:41;;;;;;;27.80;12.90;;;;;;;1.57;80.61;99648.63;115308;1202;22981;-90
2021/10/25 01:12:13;;;;;;;26.80;12.90;;;;;;;1.55;80.42;99656.20;114181;1202;137302;-90
2021/10/25 01:14:40;;;;;;;27.00;13.40;;;;;;;1.48;80.49;99655.45;116129;1202;25026;-89
2021/10/25 01:17:10;;;;;;;25.90;12.40;;;;;;;1.47;80.52;99655.54;114255;1196;137261;-90
2021/10/25 01:19:38;;;;;;;24.40;11.70;;;;;;;1.46;80.43;99652.95;114208;1202;22472;-90
2021/10/25 01:22:08;;;;;;;26.00;13.80;;;;;;;1.45;80.58;99651.30;113983;1195;24065;-90
2021/10/25 01:24:37;;;;;;;27.00;13.20;;;;;;;1.44;80.57;99650.17;114850;1203;137737;-90
2021/10/25 01:27:07;;;;;;;25.80;12.80;;;;;;;1.43;80.82;99652.95;115321;1195;25175;-89
2021/10/25 01:29:37;;;;;;;31.80;14.90;;;;;;;1.40;80.81;99649.11;114943;1202;137443;-89
2021/10/25 01:32:05;;;;;;;23.40;13.80;;;;;;;1.39;81.07;99644.91;114263;1201;24999;-91
2021/10/25 01:34:32;;;;;;;27.60;13.00;;;;;;;1.40;81.03;99643.73;114165;1202;22470;-91
2021/10/25 01:37:01;;;;;;;23.20;12.70;;;;;;;1.42;81.06;99641.55;114679;1202;137389;-90
2021/10/25 01:39:32;;;;;;;28.40;12.20;;;;;;;1.42;80.77;99642.66;114453;1187;25004;-90
2021/10/25 01:42:00;;;;;;;24.50;11.40;;;;;;;1.32;80.16;99642.55;114827;1202;137224;-89
2021/10/25 01:44:27;;;;;;;22.40;12.20;;;;;;;1.17;79.61;99643.41;115087;1191;23107;-88
2021/10/25 01:46:54;;;;;;;24.70;11.70;;;;;;;0.98;79.58;99641.05;115254;1202;24908;-88
2021/10/25 01:49:32;;;;;;;26.60;13.30;;;;;;;0.81;80.03;99637.48;114285;1196;137084;-88
2021/10/25 01:52:19;;;;;;;30.00;13.10;;;;;;;0.74;80.41;99638.70;114666;1204;22463;-88
2021/10/25 01:54:54;;;;;;;24.60;13.10;;;;;;;0.72;80.89;99638.94;115500;1204;137953;-88
2021/10/25 01:57:21;;;;;;;29.80;13.70;;;;;;;0.73;81.25;99633.96;114540;1204;22429;-87
2021/10/25 01:59:51;;;;;;;24.90;13.50;;;;;;;0.76;81.65;99638.38;114566;1196;137608;-87
2021/10/25 02:02:22;;;;;;;24.40;13.80;;;;;;;0.77;81.68;99637.74;113735;1203;25142;-88
2021/10/25 02:05:07;;;;;;;23.40;13.40;;;;;;;0.79;81.80;99639.14;114875;1198;22569;-88
2021/10/25 02:07:34;;;;;;;24.40;13.20;;;;;;;0.80;81.92;99632.44;115244;1203;137679;-88
2021/10/25 02:10:15;;;;;;;30.40;13.90;;;;;;;0.79;81.77;99629.66;114419;1198;31768;-88
2021/10/25 02:12:44;;;;;;;26.60;14.00;;;;;;;0.77;81.88;99624.64;114374;1204;137517;-88
2021/10/25 02:15:14;;;;;;;32.30;14.30;;;;;;;0.78;82.12;99623.21;113838;1204;22505;-88
2021/10/25 02:17:41;;;;;;;;;;;;;;;0.80;82.20;99619.73;113902;1205;138190;-89
2021/10/25 02:20:34;;;;;;;30.70;14.20;;;;;;;0.83;82.26;99618.22;114022;1196;22438;-88
2021/10/25 02:23:18;;;;;;;28.80;13.40;;;;;;;0.88;82.51;99611.81;113938;1202;137761;-88
2021/10/25 02:25:45;;;;;;;24.30;13.50;;;;;;;0.89;82.20;99610.95;114123;1195;22483;-88
2021/10/25 02:28:35;;;;;;;26.60;13.20;;;;;;;0.83;81.71;99611.00;114265;1196;22936;-89
2021/10/25 02:31:19;;;;;;;29.70;15.50;;;;;;;0.79;82.20;99608.36;114462;1196;137243;-88
2021/10/25 02:33:46;;;;;;;30.90;14.80;;;;;;;0.80;82.34;99610.77;114714;1202;22458;-90
2021/10/25 02:36:15;;;;;;;32.40;14.60;;;;;;;0.80;82.24;99605.48;114528;1202;137568;-88
2021/10/25 02:38:46;;;;;;;27.20;14.40;;;;;;;0.79;82.41;99607.84;114416;1196;22565;-89
2021/10/25 02:41:16;;;;;;;35.80;16.00;;;;;;;0.78;82.19;99609.93;114353;1186;137360;-88
2021/10/25 02:43:46;;;;;;;29.30;16.00;;;;;;;0.78;82.54;99603.33;114317;1202;26405;-89
2021/10/25 02:46:13;;;;;;;31.50;15.90;;;;;;;0.76;82.54;99603.98;114653;1202;22454;-91
2021/10/25 02:48:47;;;;;;;31.90;16.30;;;;;;;0.78;82.73;99605.14;114556;1201;138238;-89
2021/10/25 02:51:20;;;;;;;27.40;14.70;;;;;;;0.78;82.59;99605.28;114153;1196;24066;-89
2021/10/25 02:53:50;;;;;;;28.50;15.50;;;;;;;0.75;82.41;99602.67;114259;1180;138224;-88
2021/10/25 02:56:19;;;;;;;28.10;15.00;;;;;;;0.72;82.67;99599.80;114146;1181;23453;-89
2021/10/25 02:58:51;;;;;;;25.90;14.10;;;;;;;0.70;82.85;99598.43;114955;1202;24094;-88
2021/10/25 03:01:18;;;;;;;26.70;15.50;;;;;;;0.67;82.85;99599.71;114125;1196;137979;-89
2021/10/25 03:03:49;;;;;;;29.00;15.10;;;;;;;0.69;83.01;99596.20;114424;1202;22562;-89
2021/10/25 03:06:36;;;;;;;28.40;15.10;;;;;;;0.72;83.05;99601.40;114549;1201;140207;-88
2021/10/25 03:09:17;;;;;;;28.30;14.90;;;;;;;0.73;82.98;99595.23;115359;1202;22465;-89
2021/10/25 03:11:47;;;;;;;24.90;14.40;;;;;;;0.80;83.12;99602.23;113738;1196;137947;-87
2021/10/25 03:14:15;;;;;;;30.50;15.00;;;;;;;0.82;82.91;99604.89;114801;1203;24277;-89
2021/10/25 03:16:53;;;;;;;32.60;17.00;;;;;;;0.79;82.55;99603.52;114056;1202;22431;-88
2021/10/25 03:19:25;;;;;;;26.30;15.10;;;;;;;0.78;82.64;99601.70;113827;1196;138169;-88
2021/10/25 03:21:53;;;;;;;28.60;13.20;;;;;;;0.81;82.96;99600.48;114774;1196;22538;-88
2021/10/25 03:24:21;;;;;;;24.30;15.00;;;;;;;0.82;82.51;99600.61;113924;1202;137300;-88
2021/10/25 03:27:03;;;;;;;27.30;15.10;;;;;;;0.78;82.72;99597.45;113883;1202;22447;-88
2021/10/25 03:29:44;;;;;;;31.50;16.90;;;;;;;0.75;82.86;99598.38;114159;1201;137423;-88
2021/10/25 03:32:11;;;;;;;33.00;17.90;;;;;;;0.75;82.62;99592.88;114718;1197;25304;-90
2021/10/25 03:34:41;;;;;;;38.60;18.40;;;;;;;0.73;82.57;99590.36;114120;1202;22296;-87
2021/10/25 03:37:08;;;;;;;34.90;18.10;;;;;;;0.74;82.54;99596.88;113904;1202;137900;-88
2021/10/25 03:39:40;;;;;;;35.20;17.00;;;;;;;0.77;82.64;99594.83;115189;1202;24078;-88
2021/10/25 03:42:14;;;;;;;;;;;;;;;0.77;82.43;99593.58;114241;1196;137412;-87
2021/10/25 03:44:51;;;;;;;35.10;17.70;;;;;;;0.73;82.13;99587.95;114264;1203;23809;-87
2021/10/25 03:47:24;;;;;;;32.90;18.10;;;;;;;0.65;82.00;99584.75;114477;1203;22468;-88
2021/10/25 03:50:07;;;;;;;39.50;18.50;;;;;;;0.60;82.27;99580.59;114618;1203;136980;-87
2021/10/25 03:52:51;;;;;;;38.90;17.80;;;;;;;0.58;82.15;99578.15;115095;1195;22514;-88
2021/10/25 04:29:29;;;;;;;33.40;16.50;;;;;;;0.40;82.20;99538.65;114298;1202;24135;-86
2021/10/25 04:31:56;;;;;;;35.90;16.60;;;;;;;0.38;82.85;99534.39;113562;1196;137777;-86
2021/10/25 04:34:25;;;;;;;31.10;16.50;;;;;;;0.37;82.68;99529.95;114145;1201;24093;-85
2021/10/25 04:36:52;;;;;;;31.80;15.70;;;;;;;0.38;82.79;99526.65;113679;1202;137435;-85
2021/10/25 04:39:38;;;;;;;33.10;17.60;;;;;;;0.38;83.04;99522.41;114072;1202;22429;-86
2021/10/25 04:42:09;;;;;;;32.90;16.10;;;;;;;0.39;82.78;99518.76;114133;1197;25019;-86
2021/10/25 04:44:38;;;;;;;33.60;17.70;;;;;;;0.39;82.71;99518.39;113803;1202;137503;-86
2021/10/25 04:47:05;;;;;;;33.90;16.50;;;;;;;0.38;82.72;99516.67;113566;1202;25048;-85
2021/10/25 04:49:48;;;;;;;30.50;16.60;;;;;;;0.32;82.48;99511.41;113761;1181;137408;-85
2021/10/25 04:52:34;;;;;;;27.10;15.30;;;;;;;0.27;82.29;99509.09;114452;1196;22426;-86
2021/10/25 04:55:02;;;;;;;33.00;17.00;;;;;;;0.23;82.06;99507.51;114153;1187;137482;-86
2021/10/25 04:57:31;;;;;;;31.30;16.20;;;;;;;0.19;82.31;99502.55;114025;1202;24054;-86
2021/10/25 04:59:58;;;;;;;37.00;16.00;;;;;;;0.18;82.25;99501.36;113964;1202;23149;-86
2021/10/25 05:02:25;;;;;;;31.90;17.00;;;;;;;0.13;82.31;99500.92;113833;1196;137200;-85
2021/10/25 05:04:53;;;;;;;31.10;17.10;;;;;;;0.09;82.12;99505.17;113899;1196;22438;-85
2021/10/25 05:07:20;;;;;;;37.90;16.20;;;;;;;0.05;82.49;99504.98;114030;1202;137421;-85
2021/10/25 05:09:47;;;;;;;33.40;16.30;;;;;;;0.02;82.64;99506.84;114333;1202;25136;-84
2021/10/25 05:12:14;;;;;;;30.30;16.60;;;;;;;0.02;82.58;99508.67;113934;1201;22500;-85
2021/10/25 05:14:43;;;;;;;39.70;16.00;;;;;;;0.02;82.80;99508.66;114734;1196;137631;-85
2021/10/25 05:17:25;;;;;;;30.80;15.00;;;;;;;0.01;82.59;99509.27;114111;1203;22447;-85
2021/10/25 05:19:54;;;;;;;28.50;15.60;;;;;;;0.03;82.58;99507.18;114130;1202;137157;-86
2021/10/25 05:22:24;;;;;;;29.60;15.10;;;;;;;0.03;82.51;99502.49;114402;1202;22154;-85
2021/10/25 05:24:51;;;;;;;28.60;16.50;;;;;;;0.04;82.38;99504.05;114615;1196;137378;-85
2021/10/25 05:27:21;;;;;;;32.80;15.60;;;;;;;0.04;82.58;99502.94;114626;1202;22238;-85
2021/10/25 05:30:04;;;;;;;30.40;15.60;;;;;;;0.05;82.60;99509.10;114011;1201;24305;-85
2021/10/25 05:32:31;;;;;;;29.10;15.30;;;;;;;0.07;82.49;99504.95;114223;1196;137348;-85
2021/10/25 05:34:58;;;;;;;29.20;15.10;;;;;;;0.10;82.81;99506.61;114168;1202;25164;-85
2021/10/25 05:37:28;;;;;;;25.50;13.80;;;;;;;0.10;82.88;99507.86;115137;1195;137947;-84
2021/10/25 05:39:57;;;;;;;33.70;17.30;;;;;;;0.11;82.63;99506.20;114163;1201;25029;-85
2021/10/25 05:42:28;;;;;;;37.30;17.00;;;;;;;0.12;82.77;99509.48;114310;1202;137781;-85
2021/10/25 05:44:55;;;;;;;33.60;15.90;;;;;;;0.14;82.79;99511.98;114374;1196;22467;-85
2021/10/25 05:47:23;;;;;;;32.10;15.30;;;;;;;0.06;81.94;99515.23;114407;1202;22466;-85
2021/10/25 05:49:50;;;;;;;39.90;16.00;;;;;;;-0.08;81.69;99518.91;115607;1202;137470;-85
2021/10/25 05:52:17;;;;;;;31.90;15.80;;;;;;;-0.16;81.94;99518.25;115414;1202;23188;-85
2021/10/25 05:54:44;;;;;;;28.80;15.20;;;;;;;-0.20;82.23;99515.59;114192;1196;137839;-85
2021/10/25 05:57:28;;;;;;;36.70;16.10;;;;;;;-0.19;82.75;99517.98;115125;1202;25171;-85
2021/10/25 05:59:55;;;;;;;33.00;16.40;;;;;;;-0.14;82.92;99514.36;114556;1196;25136;-85
2021/10/25 06:02:26;;;;;;;33.70;16.50;;;;;;;-0.12;83.08;99512.14;114245;1196;138693;-85
2021/10/25 06:05:15;;;;;;;34.60;15.30;;;;;;;-0.12;82.99;99514.61;115282;1195;22563;-86
2021/10/25 06:07:47;;;;;;;28.90;15.40;;;;;;;-0.07;83.41;99512.09;115026;1188;137564;-85
2021/10/25 06:10:26;;;;;;;33.30;16.40;;;;;;;-0.01;83.73;99507.51;114137;1202;22441;-86
2021/10/25 06:12:57;;;;;;;36.30;17.50;;;;;;;0.02;83.49;99503.17;114498;1196;137660;-86
2021/10/25 06:15:56;;;;;;;37.20;17.90;;;;;;;0.02;83.68;99508.14;115267;1196;22241;-87
2021/10/25 06:18:24;;;;;;;33.70;17.50;;;;;;;0.04;83.89;99506.69;114225;1202;138181;-85
2021/10/25 06:20:51;;;;;;;34.00;16.50;;;;;;;0.06;83.77;99503.99;116127;1202;22268;-86
2021/10/25 06:23:20;;;;;;;38.00;17.00;;;;;;;0.13;83.91;99501.72;114769;1202;25242;-86
2021/10/25 06:25:52;;;;;;;31.40;16.40;;;;;;;0.20;84.45;99498.31;114443;1195;137425;-86
2021/10/25 06:28:25;;;;;;;33.70;17.30;;;;;;;0.29;84.20;99497.80;114931;1202;22490;-85
2021/10/25 06:31:09;;;;;;;39.80;19.00;;;;;;;0.36;84.09;99503.66;115111;1202;139044;-85
2021/10/25 06:34:15;;;;;;;36.30;18.20;;;;;;;0.44;84.14;99513.27;114883;1196;22451;-84
2021/10/25 06:37:01;;;;;;;38.30;18.00;;;;;;;0.47;83.82;99515.41;115884;1202;137439;-85
2021/10/25 06:39:51;;;;;;;34.30;17.50;;;;;;;0.44;83.56;99515.41;114760;1202;22479;-86
2021/10/25 06:42:18;;;;;;;38.10;19.50;;;;;;;0.38;83.93;99513.33;115397;1202;22410;-86
2021/10/25 06:44:57;;;;;;;39.10;19.60;;;;;;;0.39;84.31;99515.03;115237;1196;137458;-86
2021/10/25 06:47:28;;;;;;;39.40;20.80;;;;;;;0.43;84.48;99514.83;115670;1202;22468;-86
2021/10/25 06:49:58;;;;;;;39.10;18.50;;;;;;;0.49;84.93;99512.72;113991;1202;137917;-86
2021/10/25 06:52:25;;;;;;;45.40;18.00;;;;;;;0.60;85.06;99516.46;114552;1202;22473;-87
2021/10/25 06:54:55;;;;;;;35.80;18.30;;;;;;;0.69;84.98;99510.90;114698;1196;137503;-86
2021/10/25 06:57:23;;;;;;;40.80;21.10;;;;;;;0.80;85.10;99509.77;115733;1202;22443;-88
2021/10/25 06:59:52;;;;;;;46.40;22.00;;;;;;;0.88;85.19;99505.95;115544;1202;22427;-85
2021/10/25 07:02:20;;;;;;;40.90;20.40;;;;;;;0.96;85.19;99508.13;115423;1202;137795;-86
2021/10/25 07:05:03;;;;;;;41.40;20.60;;;;;;;1.11;85.30;99512.16;114553;1195;22431;-87
2021/10/25 07:07:32;;;;;;;39.20;18.80;;;;;;;1.25;85.50;99512.86;114616;1187;137448;-87
2021/10/25 07:10:00;;;;;;;37.40;21.10;;;;;;;1.39;85.38;99518.98;114381;1201;24025;-87
2021/10/25 07:12:27;;;;;;;44.80;21.10;;;;;;;1.51;85.46;99519.84;115172;1186;22436;-88
2021/10/25 07:14:57;;;;;;;46.90;22.70;;;;;;;1.62;84.77;99514.45;113847;1195;137949;-87
2021/10/25 08:07:50;;;;;;;23.00;11.90;;;;;;;3.78;80.81;99474.45;113843;1202;137386;-91
2021/10/25 08:10:25;;;;;;;23.10;11.70;;;;;;;3.89;80.71;99481.60;114322;1202;22485;-92
2021/10/25 08:12:59;;;;;;;21.20;10.10;;;;;;;4.01;79.86;99471.84;114795;1202;138146;-95
2021/10/25 08:15:38;;;;;;;22.70;10.00;;;;;;;4.14;79.50;99469.10;115225;1202;23258;-92
2021/10/25 08:20:59;;;;;;;26.20;12.60;;;;;;;4.42;79.03;99464.85;115754;1196;136931;-92
2021/10/25 08:23:39;;;;;;;22.60;13.10;;;;;;;4.56;79.02;99463.77;114721;1203;22558;-93
2021/10/25 08:45:05;;;;;;;27.20;14.30;;;;;;;6.08;75.72;99451.15;112576;1212;563770;-92
2021/10/25 08:47:36;;;;;;;20.40;11.30;;;;;;;6.37;75.04;99450.50;113778;1209;22445;-92
2021/10/25 08:50:07;;;;;;;19.50;9.70;;;;;;;6.42;74.46;99447.85;113292;1209;22458;-90
2021/10/25 08:52:34;;;;;;;17.30;9.80;;;;;;;6.48;74.23;99445.49;113388;1209;136778;-89
2021/10/25 08:55:07;;;;;;;25.90;10.30;;;;;;;6.64;74.32;99438.26;113354;1208;23353;-88
2021/10/25 08:57:34;;;;;;;22.60;10.00;;;;;;;6.76;73.63;99441.65;113603;1209;139098;-87
2021/10/25 09:00:11;;;;;;;27.20;11.40;;;;;;;6.84;72.56;99434.10;113669;1209;22448;-89
2021/10/25 09:02:59;;;;;;;22.40;11.60;;;;;;;6.90;72.61;99440.75;113583;1203;136825;-87
2021/10/25 09:05:27;;;;;;;26.20;11.00;;;;;;;6.96;72.38;99436.14;114473;1201;22454;-87
2021/10/25 09:08:09;;;;;;;20.30;11.70;;;;;;;7.04;72.14;99441.56;113679;1209;25294;-86
2021/10/25 09:10:46;;;;;;;21.50;10.90;;;;;;;7.15;72.01;99433.21;113496;1209;136237;-86
2021/10/25 09:13:17;;;;;;;25.40;10.40;;;;;;;7.23;71.75;99431.48;114048;1203;22512;-86
2021/10/25 09:15:49;;;;;;;18.10;9.30;;;;;;;7.30;71.00;99429.69;113304;1193;138070;-85
2021/10/25 09:18:37;;;;;;;17.70;8.00;;;;;;;7.37;69.67;99425.48;113440;1209;22512;-86
2021/10/25 09:21:06;;;;;;;18.10;9.60;;;;;;;7.44;68.99;99424.20;113606;1209;136352;-85
2021/10/25 09:23:42;;;;;;;21.20;10.50;;;;;;;7.49;68.13;99421.66;113611;1202;22913;-85
2021/10/25 09:26:16;;;;;;;19.60;8.70;;;;;;;7.56;68.55;99420.98;113606;1209;22437;-84
2021/10/25 09:28:50;;;;;;;17.70;8.60;;;;;;;7.65;67.75;99420.97;114354;1209;136353;-84
2021/10/25 09:31:24;;;;;;;20.70;10.80;;;;;;;7.72;67.08;99417.63;113595;1209;22468;-84
2021/10/25 09:33:55;;;;;;;22.60;10.90;;;;;;;7.80;67.56;99412.02;113337;1202;136834;-84
2021/10/25 09:36:35;;;;;;;21.50;10.30;;;;;;;7.88;67.78;99407.16;113339;1209;25109;-85
2021/10/25 09:39:16;;;;;;;17.80;9.10;;;;;;;7.98;67.11;99405.90;113311;1209;136797;-84
2021/10/25 09:42:18;;;;;;;17.70;8.30;;;;;;;8.06;66.12;99400.08;113252;1209;25051;-85
2021/10/25 09:50:47;;;;;;;17.60;8.90;;;;;;;8.33;64.22;99404.38;113949;1202;137393;-85
2021/10/25 09:53:15;;;;;;;18.60;9.10;;;;;;;8.42;64.22;99399.30;113609;1209;24204;-86
2021/10/25 09:55:45;;;;;;;18.30;7.40;;;;;;;8.52;63.25;99399.95;113337;1202;24157;-85
2021/10/25 09:58:21;;;;;;;21.20;8.70;;;;;;;8.61;62.91;99395.86;113303;1209;136446;-86
2021/10/25 10:00:57;;;;;;;18.30;7.90;;;;;;;8.72;62.73;99388.55;113383;1209;24179;-85
2021/10/25 10:03:24;;;;;;;18.40;7.30;;;;;;;8.82;62.90;99385.77;113611;1209;137156;-85
2021/10/25 10:06:15;;;;;;;14.50;8.30;;;;;;;8.93;61.88;99382.38;113198;1205;23526;-85
2021/10/25 10:08:51;;;;;;;16.20;7.60;;;;;;;9.04;61.49;99379.18;113900;1209;137663;-85
2021/10/25 10:11:20;;;;;;;;;;;;;;;9.14;61.00;99376.61;113956;1209;22461;-85
2021/10/25 10:13:47;;;;;;;19.10;8.90;;;;;;;9.23;61.29;99377.12;113678;1205;26087;-85
2021/10/25 10:16:23;;;;;;;16.50;8.10;;;;;;;9.35;61.55;99372.50;113676;1198;137331;-84
2021/10/25 10:18:58;;;;;;;18.40;7.80;;;;;;;9.44;61.01;99372.04;113950;1199;22489;-84
2021/10/25 10:21:33;;;;;;;13.10;8.30;;;;;;;9.55;60.60;99368.89;113706;1205;136580;-85
2021/10/25 10:24:16;;;;;;;17.60;8.80;;;;;;;9.65;60.72;99367.80;114013;1205;22452;-85
2021/10/25 10:26:53;;;;;;;17.90;9.40;;;;;;;9.74;60.63;99365.84;113823;1199;136833;-85
2021/10/25 10:29:21;;;;;;;15.50;8.20;;;;;;;9.83;60.52;99362.27;114059;1205;22455;-85
2021/10/25 10:32:04;;;;;;;22.10;8.90;;;;;;;9.92;60.14;99358.04;113706;1205;22865;-85
2021/10/25 10:34:45;;;;;;;15.40;8.60;;;;;;;10.00;60.03;99355.05;113937;1205;137465;-85
2021/10/25 10:37:33;;;;;;;18.20;9.00;;;;;;;10.09;59.59;99355.30;113433;1199;29744;-85
2021/10/25 10:40:06;;;;;;;18.30;8.70;;;;;;;10.18;59.62;99349.71;113858;1205;136743;-86
2021/10/25 10:42:58;;;;;;;21.80;9.80;;;;;;;10.29;59.44;99351.23;114382;1205;24119;-86
2021/10/25 10:45:27;;;;;;;18.00;9.80;;;;;;;10.36;59.47;99352.66;113856;1192;136595;-85
2021/10/25 10:47:57;;;;;;;20.40;10.10;;;;;;;10.45;59.38;99353.21;113749;1199;22576;-85
2021/10/25 10:50:39;;;;;;;27.90;11.40;;;;;;;10.54;59.05;99350.13;114132;1206;136912;-86
2021/10/25 10:53:56;;;;;;;20.60;11.40;;;;;;;10.63;58.99;99346.14;113804;1190;24063;-85
2021/10/25 10:56:04;;;;;;;24.00;11.00;;;;;;;10.73;58.67;99342.70;113947;1199;22620;-86
2021/10/25 11:01:08;;;;;;;28.00;11.60;;;;;;;10.90;58.30;99336.11;113813;1205;22598;-84
2021/10/25 11:03:36;;;;;;;29.40;12.50;;;;;;;10.99;58.18;99330.79;113393;1205;136745;-84
2021/10/25 11:06:11;;;;;;;33.90;12.90;;;;;;;11.06;57.34;99325.81;113949;1198;24058;-85
2021/10/25 11:08:44;;;;;;;25.70;12.40;;;;;;;11.12;57.32;99320.88;113964;1206;136977;-85
2021/10/25 11:11:19;;;;;;;29.00;12.20;;;;;;;11.18;57.08;99317.27;113767;1205;22506;-85
2021/10/25 11:13:55;;;;;;;26.60;13.00;;;;;;;11.26;57.21;99314.96;114008;1205;22461;-85
2021/10/25 11:17:15;;;;;;;27.80;12.90;;;;;;;11.32;55.92;99312.80;114317;1203;136897;-85
2021/10/25 11:19:13;;;;;;;22.30;11.00;;;;;;;11.40;56.73;99310.27;113658;1205;25429;-85
2021/10/25 11:21:46;;;;;;;23.40;12.30;;;;;;;11.47;55.58;99299.92;114815;1205;137618;-85
2021/10/25 11:24:22;;;;;;;22.00;11.20;;;;;;;11.54;54.50;99300.34;114088;1205;22639;-85
2021/10/25 11:27:05;;;;;;;31.10;11.40;;;;;;;11.62;54.28;99293.52;113603;1205;137298;-85
2021/10/25 11:29:35;;;;;;;24.50;10.40;;;;;;;11.71;54.71;99295.88;113356;1205;22448;-85
2021/10/25 11:32:06;;;;;;;23.70;9.80;;;;;;;11.80;54.43;99294.98;114176;1199;22474;-85
2021/10/25 11:34:36;;;;;;;21.50;8.90;;;;;;;11.89;54.11;99294.56;113274;1205;138057;-85
2021/10/25 11:37:16;;;;;;;19.40;9.30;;;;;;;11.96;53.37;99293.31;114335;1198;22492;-85
2021/10/25 11:39:50;;;;;;;22.90;9.90;;;;;;;12.04;53.47;99291.64;113978;1200;137795;-86
2021/10/25 11:42:21;;;;;;;16.30;8.60;;;;;;;12.10;53.30;99283.01;114179;1205;24436;-85
2021/10/25 11:44:50;;;;;;;22.40;9.90;;;;;;;12.17;52.98;99282.81;113269;1205;136914;-85
2021/10/25 11:47:44;;;;;;;22.70;9.70;;;;;;;12.24;51.86;99279.23;113457;1200;22573;-85
2021/10/25 11:50:16;;;;;;;19.70;10.40;;;;;;;12.31;52.44;99274.25;113740;1205;27328;-85
2021/10/25 11:52:46;;;;;;;18.90;10.20;;;;;;;12.39;52.68;99275.36;113576;1205;136926;-85
2021/10/25 11:55:20;;;;;;;18.70;9.30;;;;;;;12.44;52.67;99265.42;113660;1205;24097;-85
2021/10/25 11:57:53;;;;;;;18.10;10.10;;;;;;;12.49;52.12;99269.36;113651;1199;137020;-86
2021/10/25 12:00:27;;;;;;;19.60;9.30;;;;;;;12.55;52.28;99265.61;113758;1205;25261;-84
2021/10/25 12:03:26;;;;;;;15.20;8.40;;;;;;;12.63;52.31;99264.11;113513;1205;136958;-85
2021/10/25 12:05:53;;;;;;;17.30;8.60;;;;;;;12.69;51.29;99258.33;114071;1204;23171;-85
2021/10/25 12:08:21;;;;;;;18.70;8.50;;;;;;;12.74;51.10;99257.20;113672;1200;25014;-85
2021/10/25 12:10:49;;;;;;;16.60;9.10;;;;;;;12.79;50.97;99258.23;114186;1205;137930;-85
2021/10/25 12:13:30;;;;;;;17.80;8.70;;;;;;;12.84;51.09;99252.59;114028;1205;22429;-85
2021/10/25 12:16:04;;;;;;;19.20;9.20;;;;;;;12.89;50.93;99248.39;113269;1205;136881;-84
2021/10/25 12:18:30;;;;;;;18.30;8.60;;;;;;;12.95;51.27;99248.95;113957;1205;24035;-85
2021/10/25 12:21:14;;;;;;;14.50;9.00;;;;;;;13.01;51.00;99252.52;114556;1199;137062;-85
2021/10/25 12:23:48;;;;;;;20.40;8.80;;;;;;;13.06;50.89;99255.15;114350;1204;24900;-84
2021/10/25 12:26:16;;;;;;;16.70;9.50;;;;;;;13.12;51.57;99253.14;114367;1202;22424;-85
2021/10/25 12:28:42;;;;;;;18.80;9.40;;;;;;;13.19;51.34;99254.91;114383;1199;136982;-84
2021/10/25 12:31:15;;;;;;;20.40;9.10;;;;;;;13.23;50.99;99247.63;114695;1205;22441;-85
2021/10/25 12:33:45;;;;;;;14.40;9.00;;;;;;;13.26;50.76;99244.93;113799;1205;136893;-84
2021/10/25 12:36:19;;;;;;;19.90;10.30;;;;;;;13.31;50.52;99244.11;113479;1205;22571;-85
2021/10/25 12:38:53;;;;;;;12.90;8.90;;;;;;;13.34;50.69;99243.97;113751;1199;137067;-85
2021/10/25 12:41:19;;;;;;;16.40;9.40;;;;;;;13.37;50.16;99239.31;114565;1206;22396;-85
2021/10/25 12:43:54;;;;;;;14.80;9.00;;;;;;;13.38;50.01;99227.63;113736;1206;22438;-85
2021/10/25 12:46:24;;;;;;;19.00;9.00;;;;;;;13.44;50.56;99227.10;113959;1205;137332;-83
2021/10/25 12:48:56;;;;;;;14.90;8.70;;;;;;;13.51;50.56;99222.67;113764;1198;24248;-83
2021/10/25 12:51:36;;;;;;;17.00;8.70;;;;;;;13.57;50.83;99216.98;113775;1206;139962;-84
2021/10/25 12:54:11;;;;;;;17.60;9.00;;;;;;;13.62;50.60;99216.52;113638;1205;22505;-79
2021/10/25 12:56:40;;;;;;;16.90;8.10;;;;;;;13.65;50.92;99209.85;113453;1204;136960;-84
2021/10/25 12:59:12;;;;;;;15.80;10.00;;;;;;;13.71;50.78;99205.69;114292;1190;25121;-85
2021/10/25 13:01:52;;;;;;;19.90;9.60;;;;;;;13.76;50.38;99203.86;113888;1205;22584;-85
2021/10/25 13:04:20;;;;;;;15.10;8.70;;;;;;;13.80;50.15;99200.64;113725;1199;137061;-85
2021/10/25 13:06:48;;;;;;;15.50;7.60;;;;;;;13.82;49.81;99201.94;113831;1203;22489;-85
2021/10/25 13:09:16;;;;;;;13.50;7.50;;;;;;;13.85;49.88;99201.16;113790;1199;137100;-83
2021/10/25 13:11:45;;;;;;;13.80;7.40;;;;;;;13.88;49.81;99195.01;113501;1205;22458;-85
2021/10/25 13:14:12;;;;;;;15.30;8.10;;;;;;;13.91;49.47;99196.55;113837;1199;22458;-88
2021/10/25 13:16:43;;;;;;;14.20;7.50;;;;;;;13.93;49.45;99187.81;113649;1205;136928;-85
2021/10/25 13:19:12;;;;;;;14.70;7.90;;;;;;;13.94;49.08;99190.20;113765;1199;25167;-84
2021/10/25 13:21:39;;;;;;;12.20;7.10;;;;;;;13.95;49.26;99189.45;113859;1205;137383;-85
2021/10/25 13:24:19;;;;;;;11.70;6.70;;;;;;;13.96;48.65;99184.75;114125;1206;23190;-84
2021/10/25 13:26:46;;;;;;;14.20;7.70;;;;;;;13.95;48.74;99183.70;113591;1200;137252;-84
2021/10/25 13:29:12;;;;;;;16.10;8.10;;;;;;;13.95;48.72;99186.64;113793;1205;22464;-84
2021/10/25 13:31:38;;;;;;;13.10;7.20;;;;;;;13.96;48.55;99184.36;113834;1206;24218;-84
2021/10/25 13:34:05;;;;;;;14.70;7.50;;;;;;;13.97;48.56;99180.77;113777;1190;137107;-84
2021/10/25 13:36:31;;;;;;;15.70;7.80;;;;;;;13.98;48.35;99177.77;113568;1205;25133;-85